首页
METAR-TAF:

METAR-TAF

机场 :

查尔斯顿, 南卡罗来纳州, 美国

纬度: 32-42-03N, 经度: 080-00-10W, 海拔: 5米

当前天气观测

该预报发布于15分钟前的01:55 UTC
风速9节,风向
温度 28°C
湿度 89%
气压 1017 hPa
能見度: 11.3公里
天空无云

METAR: KJZI 220155Z AUTO 19009KT 7SM CLR 28/26 A3002 RMK AO2

时间: 22:10 (02:10 UTC)


TAF: 丢失

超过4000个机场的气象观测和天气预报(METAR&TAF报告)。

可查询的气象台以黄色和红色小点在地图上表示。

将鼠标移到小点上方,可查看气象台名称。

然后点击查看天气观测和预报。

如需切换地图:点击带黑十字的绿色按钮放大地图;点击带横线的绿色按钮缩小地图;或者点击绿色箭头查看邻近地区的地图。


METAR-TAF: